Time;durP1;ratioP1;P1;durP2;ratioP2;P2;SDS_P1;SDS_P2;PMS_P1;PMS_P2;Temp;Humidity;BMP_temperature;BMP_pressure;BME280_temperature;BME280_humidity;BME280_pressure;Samples;Min_cycle;Max_cycle;Signal;HPM_P1;HPM_P2
2021/12/09 00:01:41;;;;;;;6.32;2.80;;;3.20;99.90;;;;;;4973423;28;20062;-72
2021/12/09 00:04:14;;;;;;;7.60;2.78;;;3.10;99.90;;;;;;4973812;28;20031;-72
2021/12/09 00:06:43;;;;;;;6.78;3.10;;;3.10;99.90;;;;;;4973298;28;20159;-72
2021/12/09 00:09:12;;;;;;;7.13;2.67;;;3.00;99.90;;;;;;4973520;28;20420;-72
2021/12/09 00:11:44;;;;;;;8.33;2.20;;;2.90;99.90;;;;;;4972931;28;20041;-72
2021/12/09 00:14:23;;;;;;;8.32;2.65;;;2.90;99.90;;;;;;4973993;28;20294;-72
2021/12/09 00:16:49;;;;;;;5.72;2.10;;;2.90;99.90;;;;;;4973009;28;20027;-72
2021/12/09 00:19:15;;;;;;;13.77;2.95;;;2.80;99.90;;;;;;4974212;28;20404;-72
2021/12/09 00:21:41;;;;;;;7.20;2.70;;;2.70;99.90;;;;;;4972910;28;20102;-72
2021/12/09 00:24:07;;;;;;;4.75;2.25;;;2.70;99.90;;;;;;4973429;28;20026;-71
2021/12/09 00:26:32;;;;;;;11.25;2.65;;;2.70;99.90;;;;;;4974532;28;20045;-72
2021/12/09 00:28:58;;;;;;;6.93;2.20;;;2.60;99.90;;;;;;4973585;28;20357;-71
2021/12/09 00:31:25;;;;;;;9.90;2.75;;;2.60;99.90;;;;;;4973593;28;20034;-71
2021/12/09 00:33:51;;;;;;;5.15;2.20;;;2.60;99.90;;;;;;4971974;28;20230;-71
2021/12/09 00:36:26;;;;;;;11.43;2.53;;;2.50;99.90;;;;;;4972911;28;20034;-71
2021/12/09 00:38:59;;;;;;;9.75;2.28;;;2.50;99.90;;;;;;4972511;28;20058;-71
2021/12/09 00:41:26;;;;;;;9.40;2.30;;;2.50;99.90;;;;;;4973473;28;20447;-71
2021/12/09 00:43:51;;;;;;;8.60;2.33;;;2.40;99.90;;;;;;4972605;28;20069;-71
2021/12/09 00:46:17;;;;;;;12.15;2.17;;;2.40;99.90;;;;;;4972930;28;20468;-71
2021/12/09 00:48:44;;;;;;;9.70;2.60;;;2.40;99.90;;;;;;4972598;28;20070;-71
2021/12/09 00:51:11;;;;;;;9.88;2.75;;;2.30;99.90;;;;;;4972995;28;20460;-71
2021/12/09 00:53:37;;;;;;;5.90;2.45;;;2.30;99.90;;;;;;4972446;28;20027;-71
2021/12/09 00:56:05;;;;;;;6.10;2.40;;;2.30;99.90;;;;;;4973077;28;20058;-72
2021/12/09 00:58:30;;;;;;;7.60;2.67;;;2.20;99.90;;;;;;4972236;28;20114;-72
2021/12/09 01:00:56;;;;;;;10.60;2.58;;;2.30;99.90;;;;;;4973115;28;20452;-72
2021/12/09 01:03:22;;;;;;;10.18;2.65;;;2.30;99.90;;;;;;4973505;28;20476;-71
2021/12/09 01:05:49;;;;;;;9.40;2.75;;;2.20;99.90;;;;;;4972956;28;20030;-71
2021/12/09 01:08:15;;;;;;;12.18;2.72;;;2.20;99.90;;;;;;4973443;28;20077;-71
2021/12/09 01:10:41;;;;;;;16.27;2.95;;;2.30;99.90;;;;;;4972168;28;20031;-71
2021/12/09 01:13:08;;;;;;;10.05;2.47;;;2.30;99.90;;;;;;4972749;28;20031;-71
2021/12/09 01:15:34;;;;;;;6.63;2.47;;;2.30;99.90;;;;;;4972158;28;20082;-72
2021/12/09 01:18:00;;;;;;;7.45;2.30;;;2.20;99.90;;;;;;4973018;28;20432;-71
2021/12/09 01:20:27;;;;;;;16.77;2.60;;;2.20;99.90;;;;;;4973008;28;20027;-71
2021/12/09 01:22:54;;;;;;;8.13;2.60;;;2.20;99.90;;;;;;4972133;28;20198;-71
2021/12/09 01:25:22;;;;;;;6.85;2.38;;;2.20;99.90;;;;;;4971561;28;20034;-71
2021/12/09 01:27:51;;;;;;;6.03;2.30;;;2.20;99.90;;;;;;4971627;28;20031;-71
2021/12/09 01:30:19;;;;;;;7.05;2.45;;;2.20;99.90;;;;;;4972721;28;20027;-71
2021/12/09 01:32:51;;;;;;;6.25;2.30;;;2.10;99.90;;;;;;4971810;28;20125;-71
2021/12/09 01:35:33;;;;;;;7.65;2.00;;;2.20;99.90;;;;;;4972852;28;20031;-71
2021/12/09 01:38:02;;;;;;;5.00;2.10;;;2.10;99.90;;;;;;4972506;28;20034;-71
2021/12/09 01:40:29;;;;;;;11.75;2.35;;;2.10;99.90;;;;;;4971562;28;20026;-70
2021/12/09 01:42:57;;;;;;;10.52;2.70;;;2.10;99.90;;;;;;4970789;28;20198;-72
2021/12/09 01:45:24;;;;;;;13.00;2.88;;;2.10;99.90;;;;;;4973399;28;20113;-72
2021/12/09 01:47:49;;;;;;;9.85;2.65;;;2.10;99.90;;;;;;4975814;28;20053;-72
2021/12/09 01:50:16;;;;;;;7.50;2.53;;;2.10;99.90;;;;;;4976663;28;20031;-70
2021/12/09 01:52:42;;;;;;;10.40;2.90;;;2.20;99.90;;;;;;4975479;28;20070;-71
2021/12/09 01:55:09;;;;;;;7.65;2.65;;;2.20;99.90;;;;;;4976396;28;20504;-70
2021/12/09 01:57:35;;;;;;;9.57;2.85;;;2.20;99.90;;;;;;4974712;28;20101;-73
2021/12/09 02:00:03;;;;;;;13.18;2.90;;;2.20;99.90;;;;;;4975967;28;20457;-71
2021/12/09 02:02:29;;;;;;;10.43;3.20;;;2.30;99.90;;;;;;4976153;28;20046;-73
2021/12/09 02:04:54;;;;;;;4.93;2.70;;;2.30;99.90;;;;;;4974977;28;20038;-72
2021/12/09 02:07:20;;;;;;;10.45;3.58;;;2.30;99.90;;;;;;4976012;28;20037;-72
2021/12/09 02:09:45;;;;;;;7.70;3.20;;;2.30;99.90;;;;;;4975427;28;20078;-71
2021/12/09 02:12:11;;;;;;;10.43;3.78;;;2.20;99.90;;;;;;4975719;28;20062;-72
2021/12/09 02:14:42;;;;;;;8.82;3.72;;;2.20;99.90;;;;;;4975023;28;20039;-74
2021/12/09 02:17:08;;;;;;;15.80;4.93;;;2.30;99.90;;;;;;4974927;28;20031;-72
2021/12/09 02:19:34;;;;;;;12.02;4.85;;;2.30;99.90;;;;;;4975421;28;20035;-73
2021/12/09 02:22:00;;;;;;;10.50;4.68;;;2.30;99.90;;;;;;4975212;28;20436;-72
2021/12/09 02:24:26;;;;;;;12.27;5.55;;;2.30;99.90;;;;;;4975812;28;20484;-72
2021/12/09 02:26:52;;;;;;;12.73;4.63;;;2.40;99.90;;;;;;4974723;28;20388;-72
2021/12/09 02:29:19;;;;;;;9.95;4.93;;;2.40;99.90;;;;;;4975653;28;20033;-72
2021/12/09 02:31:45;;;;;;;14.52;5.50;;;2.40;99.90;;;;;;4975083;28;20042;-72
2021/12/09 02:34:12;;;;;;;14.13;6.32;;;2.30;99.90;;;;;;4975610;28;20075;-72
2021/12/09 02:36:41;;;;;;;16.50;5.40;;;2.40;99.90;;;;;;4975100;28;20034;-73
2021/12/09 02:39:11;;;;;;;16.65;6.47;;;2.40;99.90;;;;;;4974579;28;20384;-72
2021/12/09 02:41:38;;;;;;;15.00;6.38;;;2.40;99.90;;;;;;4974508;28;20034;-73
2021/12/09 02:44:08;;;;;;;11.63;5.32;;;2.40;99.90;;;;;;4975559;28;20035;-72
2021/12/09 02:46:37;;;;;;;16.50;7.70;;;2.40;99.90;;;;;;4975121;28;20113;-73
2021/12/09 02:49:09;;;;;;;15.25;5.90;;;2.40;99.90;;;;;;4974984;28;20034;-72
2021/12/09 02:51:36;;;;;;;13.00;6.65;;;2.40;99.90;;;;;;4975307;28;20045;-73
2021/12/09 02:54:04;;;;;;;15.75;6.85;;;2.40;99.90;;;;;;4975055;28;20038;-72
2021/12/09 02:56:30;;;;;;;15.25;7.10;;;2.40;99.90;;;;;;4974357;28;20078;-72
2021/12/09 02:58:56;;;;;;;13.75;6.35;;;2.50;99.90;;;;;;4973726;28;20628;-72
2021/12/09 03:01:30;;;;;;;11.70;5.60;;;2.50;99.90;;;;;;4974551;28;20027;-72
2021/12/09 03:03:59;;;;;;;16.83;6.45;;;2.50;99.90;;;;;;4974404;28;20037;-72
2021/12/09 03:06:35;;;;;;;14.63;6.20;;;2.50;99.90;;;;;;4975115;28;20106;-72
2021/12/09 03:09:07;;;;;;;18.42;6.05;;;2.50;99.90;;;;;;4974636;28;20042;-70
2021/12/09 03:11:33;;;;;;;23.20;6.25;;;2.60;99.90;;;;;;4975174;28;20085;-72
2021/12/09 03:14:00;;;;;;;13.98;5.15;;;2.60;99.90;;;;;;4973773;28;20035;-71
2021/12/09 03:16:26;;;;;;;17.30;5.80;;;2.70;99.90;;;;;;4974839;28;20054;-70
2021/12/09 03:18:59;;;;;;;16.13;5.00;;;2.60;99.90;;;;;;4973901;28;20062;-71
2021/12/09 03:21:29;;;;;;;18.45;4.82;;;2.70;99.90;;;;;;4974878;28;20034;-72
2021/12/09 03:23:56;;;;;;;13.40;4.78;;;2.70;99.90;;;;;;4974025;28;20030;-72
2021/12/09 03:26:29;;;;;;;17.52;5.28;;;2.70;99.90;;;;;;4974653;28;20038;-71
2021/12/09 03:28:57;;;;;;;14.35;4.70;;;2.80;99.90;;;;;;4973729;28;20030;-71
2021/12/09 03:31:22;;;;;;;16.25;4.43;;;2.80;99.90;;;;;;4974259;28;20388;-72
2021/12/09 03:33:48;;;;;;;13.05;4.50;;;2.90;99.90;;;;;;4973647;28;20038;-72
2021/12/09 03:36:15;;;;;;;16.17;5.85;;;2.90;99.90;;;;;;4974305;28;20039;-72
2021/12/09 03:38:41;;;;;;;14.55;4.75;;;2.90;99.90;;;;;;4973307;28;20027;-72
2021/12/09 03:41:07;;;;;;;17.58;4.82;;;2.80;99.90;;;;;;4973402;28;20054;-71
2021/12/09 03:43:34;;;;;;;12.75;4.43;;;2.90;99.90;;;;;;4974513;28;20110;-72
2021/12/09 03:46:00;;;;;;;12.43;5.15;;;2.90;99.90;;;;;;4973398;28;20019;-72
2021/12/09 03:48:29;;;;;;;19.30;5.25;;;2.80;99.90;;;;;;4974094;28;20419;-73
2021/12/09 03:50:56;;;;;;;;;;;2.80;99.90;;;;;;4974004;28;20937;-72
2021/12/09 03:53:23;;;;;;;14.18;4.80;;;2.80;99.90;;;;;;4974294;28;19964;-72
2021/12/09 03:55:49;;;;;;;15.30;4.57;;;2.80;99.90;;;;;;4973144;28;20047;-72
2021/12/09 03:58:16;;;;;;;14.07;4.70;;;2.80;99.90;;;;;;4973868;28;20034;-72
2021/12/09 04:00:43;;;;;;;15.32;4.70;;;2.80;99.90;;;;;;4973283;28;20030;-72
2021/12/09 04:03:09;;;;;;;11.05;4.45;;;2.80;99.90;;;;;;4973964;28;20023;-72
2021/12/09 04:05:35;;;;;;;14.27;5.53;;;2.80;99.90;;;;;;4973971;28;20488;-72
2021/12/09 04:08:03;;;;;;;16.40;5.30;;;2.80;99.90;;;;;;4972700;28;20035;-72
2021/12/09 04:10:29;;;;;;;12.85;4.65;;;2.80;99.90;;;;;;4973725;28;20027;-72
2021/12/09 04:12:56;;;;;;;15.73;4.97;;;2.80;99.90;;;;;;4973158;28;20026;-71
2021/12/09 04:15:22;;;;;;;14.77;4.75;;;2.80;99.90;;;;;;4973842;28;20031;-72
2021/12/09 04:17:47;;;;;;;14.70;4.43;;;2.80;99.90;;;;;;4972669;28;20407;-72
2021/12/09 04:20:13;;;;;;;14.10;4.55;;;2.80;99.90;;;;;;4973694;28;20031;-72
2021/12/09 04:22:39;;;;;;;15.43;4.65;;;2.80;99.90;;;;;;4973269;28;20030;-74
2021/12/09 04:25:06;;;;;;;16.23;5.10;;;2.70;99.90;;;;;;4972117;28;20403;-72
2021/12/09 04:27:32;;;;;;;15.35;5.15;;;2.70;99.90;;;;;;4973655;28;20148;-71
2021/12/09 04:29:57;;;;;;;18.98;5.07;;;2.70;99.90;;;;;;4982243;28;20145;-71
2021/12/09 04:32:23;;;;;;;10.10;4.57;;;2.70;99.90;;;;;;4992598;28;20026;-72
2021/12/09 04:34:53;;;;;;;11.32;4.38;;;2.70;99.90;;;;;;4986536;28;20023;-72
2021/12/09 04:37:20;;;;;;;14.65;4.85;;;2.70;99.90;;;;;;4973626;28;20082;-72
2021/12/09 04:39:45;;;;;;;13.60;5.13;;;2.70;99.90;;;;;;4972384;28;20042;-72
2021/12/09 04:42:11;;;;;;;17.55;4.85;;;2.60;99.90;;;;;;4973415;28;20035;-72
2021/12/09 04:44:37;;;;;;;16.77;5.70;;;2.60;99.90;;;;;;4973209;28;20453;-72
2021/12/09 04:47:02;;;;;;;17.35;5.28;;;2.60;99.90;;;;;;4972601;28;20105;-71
2021/12/09 04:49:28;;;;;;;13.30;4.78;;;2.60;99.90;;;;;;4973124;28;20126;-71
2021/12/09 04:51:54;;;;;;;20.75;5.70;;;2.60;99.90;;;;;;4972335;28;20396;-71
2021/12/09 04:54:20;;;;;;;16.17;6.07;;;2.60;99.90;;;;;;4973223;28;20022;-71
2021/12/09 04:56:46;;;;;;;11.57;5.30;;;2.60;99.90;;;;;;4972060;28;20054;-72
2021/12/09 04:59:12;;;;;;;23.85;5.53;;;2.60;99.90;;;;;;4973132;28;20043;-71
2021/12/09 05:01:37;;;;;;;16.20;5.72;;;2.60;99.90;;;;;;4973211;28;20033;-71
2021/12/09 05:04:04;;;;;;;18.25;5.45;;;2.70;99.90;;;;;;4972440;28;20070;-71
2021/12/09 05:06:31;;;;;;;12.07;4.50;;;2.60;99.90;;;;;;4973107;28;20033;-72
2021/12/09 05:09:04;;;;;;;17.80;5.03;;;2.60;99.90;;;;;;4972920;28;20539;-71
2021/12/09 05:11:47;;;;;;;15.13;4.65;;;2.70;99.90;;;;;;4973490;28;20030;-71
2021/12/09 05:14:15;;;;;;;10.13;4.53;;;2.70;99.90;;;;;;4973463;28;20069;-71
2021/12/09 05:16:42;;;;;;;16.42;4.30;;;2.70;99.90;;;;;;4972761;28;20460;-72
2021/12/09 05:19:08;;;;;;;10.65;3.58;;;2.80;99.90;;;;;;4973387;28;20039;-70
2021/12/09 05:21:39;;;;;;;17.17;4.15;;;2.70;99.90;;;;;;4976294;28;20500;-70
2021/12/09 05:24:12;;;;;;;12.48;3.53;;;2.70;99.90;;;;;;4977125;28;20058;-71
2021/12/09 05:26:47;;;;;;;12.60;4.72;;;2.70;99.90;;;;;;4977232;28;20476;-70
2021/12/09 05:29:15;;;;;;;11.13;3.67;;;2.70;99.90;;;;;;4958145;28;20473;-70
2021/12/09 05:34:25;;;;;;;11.43;4.07;;;2.70;99.90;;;;;;4957733;29;20046;-70
2021/12/09 05:36:51;;;;;;;9.00;3.90;;;2.70;99.90;;;;;;4957225;29;20035;-70
2021/12/09 05:39:18;;;;;;;11.55;3.47;;;2.70;99.90;;;;;;4957684;29;20122;-70
2021/12/09 05:41:45;;;;;;;14.60;4.32;;;2.70;99.90;;;;;;4957060;28;20050;-70
2021/12/09 05:44:12;;;;;;;15.15;4.40;;;2.70;99.90;;;;;;4957955;28;20046;-70
2021/12/09 05:46:42;;;;;;;12.90;3.80;;;2.70;99.90;;;;;;4957547;28;20445;-70
2021/12/09 05:49:08;;;;;;;11.85;3.95;;;2.70;99.90;;;;;;4957462;29;20449;-70
2021/12/09 05:51:35;;;;;;;16.15;4.05;;;2.60;99.90;;;;;;4957581;29;20106;-70
2021/12/09 05:54:01;;;;;;;10.27;3.78;;;2.70;99.90;;;;;;4956674;29;20035;-69
2021/12/09 05:56:27;;;;;;;12.82;3.47;;;2.60;99.90;;;;;;4957198;28;20055;-70
2021/12/09 05:58:53;;;;;;;10.23;3.90;;;2.60;99.90;;;;;;4974382;28;20023;-70
2021/12/09 06:01:20;;;;;;;11.35;4.13;;;2.60;99.90;;;;;;4976553;28;20085;-71
2021/12/09 06:03:46;;;;;;;9.15;3.33;;;2.60;99.90;;;;;;4975736;28;20531;-71
2021/12/09 06:06:12;;;;;;;16.85;4.03;;;2.60;99.90;;;;;;4976051;28;20118;-70
2021/12/09 06:08:39;;;;;;;13.07;3.80;;;2.60;99.90;;;;;;4976545;28;20050;-71
2021/12/09 06:11:06;;;;;;;16.25;3.90;;;2.50;99.90;;;;;;4976144;28;20109;-71
2021/12/09 06:13:33;;;;;;;10.43;3.90;;;2.50;99.90;;;;;;4970610;28;20039;-71
2021/12/09 06:16:00;;;;;;;10.73;3.60;;;2.60;99.90;;;;;;4972966;28;20097;-71
2021/12/09 06:18:26;;;;;;;10.23;3.50;;;2.50;99.90;;;;;;4976422;28;20031;-70
2021/12/09 06:20:51;;;;;;;17.80;3.85;;;2.50;99.90;;;;;;4975649;28;20031;-66
2021/12/09 06:23:17;;;;;;;11.10;3.75;;;2.50;99.90;;;;;;4976485;28;20472;-68
2021/12/09 06:25:44;;;;;;;12.77;3.63;;;2.40;99.90;;;;;;4975593;28;20089;-71
2021/12/09 06:28:09;;;;;;;8.23;3.53;;;2.40;99.90;;;;;;4983767;28;20031;-71
2021/12/09 06:30:35;;;;;;;13.35;3.92;;;2.40;99.90;;;;;;4995627;28;20037;-70
2021/12/09 06:33:01;;;;;;;9.23;4.10;;;2.40;99.90;;;;;;4993485;28;20057;-69
2021/12/09 06:35:27;;;;;;;12.80;3.90;;;2.40;99.90;;;;;;4995206;28;20042;-70
2021/12/09 06:37:55;;;;;;;9.23;3.40;;;2.40;99.90;;;;;;4994472;28;20405;-73
2021/12/09 06:40:22;;;;;;;10.05;3.50;;;2.40;99.90;;;;;;4995408;28;20085;-68
2021/12/09 06:42:50;;;;;;;14.13;3.47;;;2.40;99.90;;;;;;4994543;28;20034;-68
2021/12/09 06:45:17;;;;;;;16.38;4.00;;;2.40;99.90;;;;;;4993484;28;20073;-68
2021/12/09 06:47:44;;;;;;;13.45;3.40;;;2.40;99.90;;;;;;4974388;28;20031;-68
2021/12/09 06:50:13;;;;;;;9.75;3.70;;;2.40;99.90;;;;;;4975034;28;20039;-70
2021/12/09 06:52:38;;;;;;;10.05;4.15;;;2.40;99.90;;;;;;4974573;28;20114;-67
2021/12/09 06:55:07;;;;;;;14.77;3.42;;;2.40;99.90;;;;;;4974459;28;20163;-67
2021/12/09 06:57:33;;;;;;;12.27;3.00;;;2.40;99.90;;;;;;4974660;28;20050;-66
2021/12/09 06:59:59;;;;;;;9.45;2.90;;;2.40;99.90;;;;;;4974362;28;20089;-68
2021/12/09 07:02:25;;;;;;;9.70;2.90;;;2.50;99.90;;;;;;4974883;28;20037;-68
2021/12/09 07:04:51;;;;;;;14.73;2.92;;;2.50;99.90;;;;;;4965142;28;20381;-68
2021/12/09 07:07:17;;;;;;;7.50;2.83;;;2.50;99.90;;;;;;4973191;28;20472;-68
2021/12/09 07:09:42;;;;;;;10.02;3.17;;;2.50;99.90;;;;;;4974640;28;20038;-67
2021/12/09 07:12:08;;;;;;;9.95;3.00;;;2.60;99.90;;;;;;4973787;28;20038;-66
2021/12/09 07:14:34;;;;;;;12.02;3.47;;;2.60;99.90;;;;;;4974780;28;20499;-67
2021/12/09 07:17:00;;;;;;;12.20;3.22;;;2.70;99.90;;;;;;4972382;28;20507;-68
2021/12/09 07:19:29;;;;;;;10.68;3.50;;;2.70;99.90;;;;;;4974554;28;20031;-66
2021/12/09 07:21:55;;;;;;;11.25;2.85;;;2.70;99.90;;;;;;4955464;28;20035;-67
2021/12/09 07:24:21;;;;;;;9.25;2.70;;;2.70;99.90;;;;;;4966546;28;20089;-66
2021/12/09 07:26:46;;;;;;;13.57;3.78;;;2.60;99.90;;;;;;4958913;28;20062;-67
2021/12/09 07:29:12;;;;;;;9.35;2.80;;;2.70;99.90;;;;;;4973972;28;20400;-66
2021/12/09 07:31:38;;;;;;;8.13;3.40;;;2.70;99.90;;;;;;4974089;28;20038;-66
2021/12/09 07:34:04;;;;;;;9.35;3.03;;;2.70;99.90;;;;;;4973338;28;20054;-67
2021/12/09 07:36:30;;;;;;;8.85;3.00;;;2.70;99.90;;;;;;4974044;28;20113;-66
2021/12/09 07:38:56;;;;;;;5.68;2.63;;;2.70;99.90;;;;;;4973793;28;20030;-66
2021/12/09 07:41:22;;;;;;;10.68;3.25;;;2.70;99.90;;;;;;4974257;28;20373;-66
2021/12/09 07:43:49;;;;;;;8.15;3.58;;;2.70;99.90;;;;;;4973160;28;20029;-67
2021/12/09 07:46:16;;;;;;;8.18;3.03;;;2.70;99.90;;;;;;4973966;28;20030;-66
2021/12/09 07:48:41;;;;;;;12.57;4.07;;;2.80;99.90;;;;;;4973699;28;20101;-66
2021/12/09 07:51:07;;;;;;;10.18;3.92;;;2.80;99.90;;;;;;4973166;28;20027;-66
2021/12/09 07:53:33;;;;;;;17.98;5.50;;;2.80;99.90;;;;;;4973724;28;20380;-66
2021/12/09 07:55:58;;;;;;;12.95;4.00;;;2.80;99.90;;;;;;4971413;28;20403;-66
2021/12/09 07:58:24;;;;;;;13.02;4.20;;;2.80;99.90;;;;;;4967860;28;20559;-66
2021/12/09 08:00:50;;;;;;;15.05;3.90;;;2.90;99.90;;;;;;4972546;28;20026;-67
2021/12/09 08:03:16;;;;;;;10.32;3.00;;;2.90;99.90;;;;;;4973435;28;20435;-65
2021/12/09 08:05:45;;;;;;;7.10;3.05;;;2.90;99.90;;;;;;4973300;28;20045;-67
2021/12/09 08:08:11;;;;;;;7.22;3.05;;;2.90;99.90;;;;;;4970521;28;20054;-66
2021/12/09 08:10:37;;;;;;;11.50;3.28;;;3.00;99.90;;;;;;4971799;28;20030;-66
2021/12/09 08:13:04;;;;;;;4.57;2.80;;;3.00;99.90;;;;;;4970271;28;20041;-66
2021/12/09 08:15:34;;;;;;;10.50;3.35;;;3.00;99.90;;;;;;4974605;28;20069;-67
2021/12/09 08:18:04;;;;;;;6.68;3.40;;;3.00;99.90;;;;;;4972544;28;20038;-66
2021/12/09 08:20:33;;;;;;;12.82;3.70;;;3.00;99.90;;;;;;4972410;28;20435;-68
2021/12/09 08:22:59;;;;;;;11.75;3.25;;;3.00;99.90;;;;;;4972257;28;20031;-68
2021/12/09 08:25:25;;;;;;;7.72;2.78;;;3.10;99.90;;;;;;4973295;28;20039;-67
2021/12/09 08:27:52;;;;;;;10.52;3.50;;;3.10;99.90;;;;;;4978952;28;20027;-67
2021/12/09 08:30:25;;;;;;;10.02;3.50;;;3.20;99.90;;;;;;4972376;28;20031;-67
2021/12/09 08:32:51;;;;;;;11.20;3.53;;;3.20;99.90;;;;;;4971860;28;20031;-67
2021/12/09 08:35:17;;;;;;;5.18;3.05;;;3.20;99.90;;;;;;4971413;28;20473;-67
2021/12/09 08:37:44;;;;;;;9.55;3.17;;;3.20;99.90;;;;;;4972431;28;20062;-67
2021/12/09 08:40:11;;;;;;;10.77;3.25;;;3.30;99.90;;;;;;4974399;28;20066;-67
2021/12/09 08:42:37;;;;;;;7.90;3.55;;;3.30;99.90;;;;;;4972338;28;20488;-67
2021/12/09 08:45:08;;;;;;;9.65;3.15;;;3.40;99.90;;;;;;4972370;28;20492;-67
2021/12/09 08:47:35;;;;;;;8.40;3.42;;;3.40;99.90;;;;;;4972421;28;20030;-67
2021/12/09 08:50:00;;;;;;;7.18;3.20;;;3.40;99.90;;;;;;4972103;28;20149;-67
2021/12/09 08:52:26;;;;;;;10.10;3.83;;;3.50;99.90;;;;;;4972329;28;20113;-67
2021/12/09 08:54:52;;;;;;;10.20;3.35;;;3.60;99.90;;;;;;4970770;28;20031;-67
2021/12/09 08:57:19;;;;;;;6.68;3.08;;;3.60;99.90;;;;;;4972794;28;20106;-67
2021/12/09 08:59:45;;;;;;;7.68;2.83;;;3.60;99.90;;;;;;4971887;28;20038;-67
2021/12/09 09:02:11;;;;;;;6.70;2.90;;;3.70;99.90;;;;;;4972104;28;20030;-67
2021/12/09 09:04:37;;;;;;;10.95;3.33;;;3.70;99.90;;;;;;4973329;28;20034;-67
2021/12/09 09:07:03;;;;;;;5.80;2.65;;;3.80;99.90;;;;;;4971536;28;20035;-67
2021/12/09 09:09:33;;;;;;;9.23;3.10;;;3.80;99.90;;;;;;4972878;28;20031;-67
2021/12/09 09:12:00;;;;;;;8.00;3.83;;;3.90;99.90;;;;;;4971907;28;20048;-67
2021/12/09 09:14:26;;;;;;;9.38;3.17;;;3.90;99.90;;;;;;4972710;28;20038;-67
2021/12/09 09:16:52;;;;;;;7.78;3.15;;;3.90;99.90;;;;;;4972069;28;20035;-68
2021/12/09 09:19:17;;;;;;;7.57;2.95;;;4.00;99.90;;;;;;4971795;28;20375;-67
2021/12/09 09:21:43;;;;;;;11.20;3.28;;;4.00;99.90;;;;;;4972438;28;20412;-67
2021/12/09 09:24:09;;;;;;;7.80;3.28;;;4.00;99.90;;;;;;4971521;28;20117;-67
2021/12/09 09:26:36;;;;;;;7.45;3.30;;;4.00;99.90;;;;;;4971421;28;20059;-67
2021/12/09 09:29:02;;;;;;;11.32;3.58;;;4.10;99.90;;;;;;4970311;28;20055;-67
2021/12/09 09:31:30;;;;;;;6.00;3.35;;;4.10;99.90;;;;;;4971233;28;20495;-66
2021/12/09 09:33:59;;;;;;;12.30;3.38;;;4.20;99.90;;;;;;4971343;28;20023;-67
2021/12/09 09:36:26;;;;;;;6.80;2.87;;;4.20;99.90;;;;;;4954550;28;20366;-66
2021/12/09 09:38:56;;;;;;;7.32;3.30;;;4.30;99.90;;;;;;4971892;28;20050;-67
2021/12/09 09:41:26;;;;;;;9.07;3.53;;;4.30;99.90;;;;;;4972523;28;20030;-67
2021/12/09 09:43:58;;;;;;;6.28;3.38;;;4.40;99.90;;;;;;4970824;28;20455;-68
2021/12/09 09:46:30;;;;;;;5.95;3.20;;;4.40;99.90;;;;;;4971765;28;20066;-66
2021/12/09 09:48:58;;;;;;;10.63;3.92;;;4.40;99.90;;;;;;4960430;28;20034;-67
2021/12/09 09:51:26;;;;;;;6.50;4.32;;;4.40;99.90;;;;;;4971888;28;20431;-67
2021/12/09 09:53:52;;;;;;;7.65;3.45;;;4.40;99.90;;;;;;4972111;28;20034;-67
2021/12/09 09:56:21;;;;;;;11.70;3.55;;;4.40;99.90;;;;;;4972013;28;20049;-66
2021/12/09 09:58:53;;;;;;;7.47;3.45;;;4.30;99.90;;;;;;4972382;28;20042;-66
2021/12/09 10:01:21;;;;;;;8.23;3.45;;;4.40;99.90;;;;;;4971832;28;20166;-66
2021/12/09 10:03:48;;;;;;;9.57;3.58;;;4.40;99.90;;;;;;4972527;28;20475;-66
2021/12/09 10:06:16;;;;;;;9.35;3.58;;;4.50;99.90;;;;;;4972164;28;20641;-66
2021/12/09 10:08:42;;;;;;;7.20;3.15;;;4.40;99.90;;;;;;4975849;28;20461;-66
2021/12/09 10:11:09;;;;;;;9.93;3.88;;;4.40;99.90;;;;;;4974526;28;20050;-67
2021/12/09 10:13:37;;;;;;;8.02;3.58;;;4.50;99.90;;;;;;4975854;28;20113;-66
2021/12/09 10:16:14;;;;;;;8.65;4.18;;;4.60;99.90;;;;;;4974918;28;20130;-67
2021/12/09 10:18:46;;;;;;;12.23;4.57;;;4.60;99.90;;;;;;4975747;28;20082;-67
2021/12/09 10:21:19;;;;;;;6.63;3.50;;;4.60;99.90;;;;;;4974731;28;20035;-67
2021/12/09 10:23:49;;;;;;;12.18;4.43;;;4.60;99.90;;;;;;4976060;28;20065;-67
2021/12/09 10:26:42;;;;;;;8.80;3.53;;;4.70;99.90;;;;;;4974900;28;20027;-67
2021/12/09 10:29:21;;;;;;;6.60;2.67;;;4.80;99.90;;;;;;4975135;28;20042;-67
2021/12/09 10:31:57;;;;;;;6.68;3.13;;;4.90;99.90;;;;;;4974718;28;20050;-66
2021/12/09 10:37:16;;;;;;;9.45;3.35;;;5.00;99.90;;;;;;4974063;28;20030;-70
2021/12/09 10:39:51;;;;;;;4.43;2.50;;;5.10;99.90;;;;;;4971022;28;20484;-67
2021/12/09 10:42:32;;;;;;;5.80;2.63;;;5.10;99.90;;;;;;4974348;28;20093;-68
2021/12/09 10:45:01;;;;;;;3.28;2.50;;;5.10;99.90;;;;;;4974353;28;20046;-70
2021/12/09 10:50:24;;;;;;;9.48;2.72;;;5.20;99.90;;;;;;4973769;28;20103;-69
2021/12/09 10:53:00;;;;;;;4.90;3.05;;;5.20;99.90;;;;;;4974596;28;20062;-70
2021/12/09 10:55:30;;;;;;;7.18;2.50;;;5.30;99.90;;;;;;4973903;28;20623;-70
2021/12/09 10:58:08;;;;;;;5.15;2.90;;;5.30;99.90;;;;;;4974121;28;20053;-71
2021/12/09 11:00:42;;;;;;;11.45;2.30;;;5.30;99.90;;;;;;4966280;28;20037;-70
2021/12/09 11:03:21;;;;;;;7.05;2.42;;;5.30;99.90;;;;;;4973909;28;20122;-68
2021/12/09 11:05:52;;;;;;;8.10;2.60;;;5.30;99.90;;;;;;4973700;28;20369;-69
2021/12/09 11:08:24;;;;;;;8.52;2.75;;;5.40;99.90;;;;;;4973782;28;20034;-68
2021/12/09 11:11:13;;;;;;;5.03;2.30;;;5.50;99.90;;;;;;4974013;28;20034;-68
2021/12/09 11:13:42;;;;;;;9.60;2.38;;;5.50;99.90;;;;;;4974761;28;20127;-67
2021/12/09 11:16:08;;;;;;;5.18;2.25;;;5.70;99.90;;;;;;4973981;28;20362;-70
2021/12/09 11:18:38;;;;;;;12.27;2.78;;;5.80;99.90;;;;;;4973793;28;20122;-70
2021/12/09 11:21:09;;;;;;;8.13;3.60;;;5.80;99.90;;;;;;4973760;28;20396;-70
2021/12/09 11:23:42;;;;;;;6.32;2.40;;;5.80;99.90;;;;;;4974665;28;20037;-70
2021/12/09 11:26:25;;;;;;;6.18;2.47;;;5.90;99.90;;;;;;4973620;28;20095;-69
2021/12/09 11:29:07;;;;;;;5.43;2.58;;;5.80;99.90;;;;;;4969157;28;20045;-69
2021/12/09 11:31:42;;;;;;;4.43;2.20;;;5.80;99.90;;;;;;4974443;28;20468;-70
2021/12/09 11:34:14;;;;;;;4.63;2.42;;;5.70;99.90;;;;;;4973613;28;20040;-70
2021/12/09 11:37:05;;;;;;;7.03;2.40;;;5.70;99.90;;;;;;4974462;28;20022;-70
2021/12/09 11:39:33;;;;;;;5.93;2.30;;;5.80;99.90;;;;;;4974291;28;20062;-70
2021/12/09 11:42:11;;;;;;;5.80;2.35;;;5.80;99.90;;;;;;4973246;28;20106;-70
2021/12/09 11:44:37;;;;;;;6.45;2.40;;;5.80;99.90;;;;;;4974115;28;20035;-70
2021/12/09 11:47:03;;;;;;;7.25;2.10;;;5.90;99.90;;;;;;4973350;28;20445;-70
2021/12/09 11:49:29;;;;;;;7.40;2.25;;;5.80;99.90;;;;;;4973014;28;20067;-70
2021/12/09 11:51:55;;;;;;;6.55;2.22;;;5.70;99.90;;;;;;4972364;28;20030;-68
2021/12/09 11:54:23;;;;;;;4.03;2.10;;;5.70;99.90;;;;;;4973460;28;20034;-68
2021/12/09 11:57:13;;;;;;;6.60;2.55;;;5.70;99.90;;;;;;4973390;28;20076;-68
2021/12/09 12:11:33;;;;;;;7.35;2.80;;;6.20;99.90;;;;;;4972138;28;20387;-69
2021/12/09 12:14:06;;;;;;;8.52;2.38;;;6.20;99.90;;;;;;4949245;29;20106;-68
2021/12/09 12:24:42;;;;;;;9.73;2.30;;;6.30;99.90;;;;;;4973659;28;20054;-67
2021/12/09 12:27:28;;;;;;;6.13;2.08;;;6.30;99.90;;;;;;4972637;28;20042;-68
2021/12/09 12:41:00;;;;;;;10.60;2.55;;;6.00;99.90;;;;;;4972868;28;20030;-68
2021/12/09 12:43:26;;;;;;;9.25;2.70;;;6.00;99.90;;;;;;4972859;28;20031;-67
2021/12/09 12:46:18;;;;;;;13.88;2.30;;;6.00;99.90;;;;;;4973296;28;20111;-67
2021/12/09 12:49:13;;;;;;;9.98;2.45;;;6.00;99.90;;;;;;4972936;28;20038;-67
2021/12/09 12:51:46;;;;;;;8.38;2.47;;;6.00;99.90;;;;;;4972625;28;20035;-67
2021/12/09 12:54:26;;;;;;;13.57;2.33;;;6.10;99.90;;;;;;4972487;28;20035;-67
2021/12/09 12:56:58;;;;;;;12.52;2.53;;;6.10;99.90;;;;;;4972610;28;20286;-67
2021/12/09 12:59:38;;;;;;;7.90;1.80;;;6.00;99.90;;;;;;4972522;28;20039;-68
2021/12/09 13:02:59;;;;;;;10.27;2.47;;;6.00;99.90;;;;;;4972129;28;20034;-68
2021/12/09 13:11:18;;;;;;;11.63;1.98;;;6.20;99.90;;;;;;4973312;28;20113;-70
2021/12/09 13:14:04;;;;;;;9.88;1.75;;;6.10;99.90;;;;;;4965946;28;20042;-67
2021/12/09 13:19:17;;;;;;;14.10;2.42;;;6.10;99.90;;;;;;4972677;28;20077;-68
2021/12/09 13:21:53;;;;;;;11.73;2.22;;;6.20;99.90;;;;;;4973096;28;20034;-68
2021/12/09 13:27:14;;;;;;;10.00;2.20;;;6.10;99.90;;;;;;4972556;28;20175;-67
2021/12/09 13:29:58;;;;;;;12.07;3.90;;;6.00;99.90;;;;;;4972768;28;20499;-67
2021/12/09 13:46:35;;;;;;;9.88;3.00;;;5.50;99.90;;;;;;4975443;28;20085;-67
2021/12/09 13:49:19;;;;;;;12.98;4.03;;;5.50;99.90;;;;;;4976219;28;20031;-67
2021/12/09 13:54:24;;;;;;;11.75;3.60;;;5.30;99.90;;;;;;4975309;28;20097;-67
2021/12/09 13:57:06;;;;;;;14.73;2.97;;;5.30;99.90;;;;;;4976050;28;20043;-66
2021/12/09 13:59:36;;;;;;;14.95;4.30;;;5.30;99.90;;;;;;4956390;28;20543;-67
2021/12/09 14:02:20;;;;;;;8.77;3.35;;;5.40;99.90;;;;;;4956550;29;20027;-67
2021/12/09 14:04:46;;;;;;;11.25;3.38;;;5.40;99.90;;;;;;4964092;28;20027;-68
2021/12/09 14:07:25;;;;;;;12.98;3.45;;;5.30;99.90;;;;;;4974951;28;20138;-68